Cokercreek, Tennessee
Current Conditions -  °F | °C
As of 2:15 AM on Saturday 20 Dec 2014 (Local Time) from KMMI Reporting Station
Overcast Overcast  
Wind Chill: 37°   Ceiling: 6500
Heat Index: 37°   Visibility: 10mi
Dew Point: 28°   Wind: 3mph
Humidity: 70%   Direction: 50°NE
Pressure: 30.16"   Gusts: NA
Location:  35.27°N, 84.29°W
Report Text: KMMI 200715Z AUTO 05003KT 10SM BKN065 OVC080 03/M02 A3016 RMK
Loading
Personal Weather Stations






























Interactive Weather Map New forecast layout! Learn more

10-Day Weather Forecast

Advertisements
Track Severe Weather on mobile